sensor_id;sensor_type;location;lat;lon;timestamp;P1;durP1;ratioP1;P2;durP2;ratioP2
43823;SDS011;29470;53.550;9.926;2023-04-06T00:03:22;5.70;;;2.97;;
43823;SDS011;29470;53.550;9.926;2023-04-06T00:08:26;4.95;;;2.85;;
43823;SDS011;29470;53.550;9.926;2023-04-06T00:13:31;9.02;;;3.83;;
43823;SDS011;29470;53.550;9.926;2023-04-06T00:18:34;6.35;;;3.00;;
43823;SDS011;29470;53.550;9.926;2023-04-06T00:23:39;6.80;;;2.92;;
43823;SDS011;29470;53.550;9.926;2023-04-06T00:28:46;5.25;;;3.15;;
43823;SDS011;29470;53.550;9.926;2023-04-06T00:33:51;5.53;;;3.03;;
43823;SDS011;29470;53.550;9.926;2023-04-06T00:38:54;5.05;;;3.10;;
43823;SDS011;29470;53.550;9.926;2023-04-06T00:44:00;5.80;;;3.13;;
43823;SDS011;29470;53.550;9.926;2023-04-06T00:49:03;5.90;;;3.28;;
43823;SDS011;29470;53.550;9.926;2023-04-06T00:54:07;6.53;;;3.40;;
43823;SDS011;29470;53.550;9.926;2023-04-06T00:59:22;5.75;;;3.20;;
43823;SDS011;29470;53.550;9.926;2023-04-06T01:04:27;7.43;;;3.30;;
43823;SDS011;29470;53.550;9.926;2023-04-06T01:09:30;7.60;;;3.33;;
43823;SDS011;29470;53.550;9.926;2023-04-06T01:14:39;6.25;;;3.80;;
43823;SDS011;29470;53.550;9.926;2023-04-06T01:19:42;5.63;;;3.78;;
43823;SDS011;29470;53.550;9.926;2023-04-06T01:24:56;7.22;;;4.05;;
43823;SDS011;29470;53.550;9.926;2023-04-06T01:30:08;5.93;;;4.38;;
43823;SDS011;29470;53.550;9.926;2023-04-06T01:37:23;8.38;;;4.13;;
43823;SDS011;29470;53.550;9.926;2023-04-06T01:41:58;8.00;;;4.55;;
43823;SDS011;29470;53.550;9.926;2023-04-06T01:52:24;7.65;;;4.45;;
43823;SDS011;29470;53.550;9.926;2023-04-06T01:57:31;7.40;;;4.22;;
43823;SDS011;29470;53.550;9.926;2023-04-06T02:02:53;9.90;;;4.53;;
43823;SDS011;29470;53.550;9.926;2023-04-06T02:07:59;9.15;;;4.90;;
43823;SDS011;29470;53.550;9.926;2023-04-06T02:13:09;8.85;;;4.60;;
43823;SDS011;29470;53.550;9.926;2023-04-06T02:18:15;8.10;;;4.80;;
43823;SDS011;29470;53.550;9.926;2023-04-06T02:23:22;7.88;;;4.78;;
43823;SDS011;29470;53.550;9.926;2023-04-06T02:28:31;9.90;;;4.45;;
43823;SDS011;29470;53.550;9.926;2023-04-06T02:33:35;9.35;;;4.70;;
43823;SDS011;29470;53.550;9.926;2023-04-06T02:38:39;9.48;;;4.93;;
43823;SDS011;29470;53.550;9.926;2023-04-06T02:43:45;9.15;;;5.20;;
43823;SDS011;29470;53.550;9.926;2023-04-06T02:48:57;10.50;;;5.32;;
43823;SDS011;29470;53.550;9.926;2023-04-06T02:54:04;11.43;;;5.00;;
43823;SDS011;29470;53.550;9.926;2023-04-06T02:59:08;11.40;;;5.85;;
43823;SDS011;29470;53.550;9.926;2023-04-06T03:04:15;10.68;;;5.90;;
43823;SDS011;29470;53.550;9.926;2023-04-06T03:09:19;12.25;;;5.85;;
43823;SDS011;29470;53.550;9.926;2023-04-06T03:14:29;10.10;;;6.20;;
43823;SDS011;29470;53.550;9.926;2023-04-06T03:20:04;12.35;;;6.43;;
43823;SDS011;29470;53.550;9.926;2023-04-06T03:25:09;11.02;;;6.78;;
43823;SDS011;29470;53.550;9.926;2023-04-06T03:30:14;13.48;;;6.60;;
43823;SDS011;29470;53.550;9.926;2023-04-06T03:35:20;10.57;;;5.97;;
43823;SDS011;29470;53.550;9.926;2023-04-06T03:41:32;11.45;;;6.50;;
43823;SDS011;29470;53.550;9.926;2023-04-06T03:46:56;11.00;;;6.22;;
43823;SDS011;29470;53.550;9.926;2023-04-06T03:57:03;9.98;;;6.40;;
43823;SDS011;29470;53.550;9.926;2023-04-06T04:02:08;14.23;;;6.97;;
43823;SDS011;29470;53.550;9.926;2023-04-06T04:07:11;15.20;;;6.85;;
43823;SDS011;29470;53.550;9.926;2023-04-06T04:12:14;12.77;;;6.75;;
43823;SDS011;29470;53.550;9.926;2023-04-06T04:17:19;12.35;;;7.45;;
43823;SDS011;29470;53.550;9.926;2023-04-06T04:22:24;11.77;;;6.35;;
43823;SDS011;29470;53.550;9.926;2023-04-06T04:27:57;11.68;;;6.93;;
43823;SDS011;29470;53.550;9.926;2023-04-06T04:33:03;13.70;;;7.60;;
43823;SDS011;29470;53.550;9.926;2023-04-06T04:38:06;13.52;;;7.57;;
43823;SDS011;29470;53.550;9.926;2023-04-06T04:43:13;14.60;;;7.43;;
43823;SDS011;29470;53.550;9.926;2023-04-06T04:48:18;14.73;;;7.82;;
43823;SDS011;29470;53.550;9.926;2023-04-06T04:53:28;12.82;;;7.57;;
43823;SDS011;29470;53.550;9.926;2023-04-06T04:58:38;15.02;;;8.02;;
43823;SDS011;29470;53.550;9.926;2023-04-06T05:03:43;12.85;;;7.72;;
43823;SDS011;29470;53.550;9.926;2023-04-06T05:08:51;12.95;;;7.97;;
43823;SDS011;29470;53.550;9.926;2023-04-06T05:13:56;16.65;;;7.80;;
43823;SDS011;29470;53.550;9.926;2023-04-06T05:19:02;18.55;;;9.35;;
43823;SDS011;29470;53.550;9.926;2023-04-06T05:24:14;13.07;;;7.88;;
43823;SDS011;29470;53.550;9.926;2023-04-06T05:29:19;12.63;;;7.78;;
43823;SDS011;29470;53.550;9.926;2023-04-06T05:34:24;13.93;;;7.65;;
43823;SDS011;29470;53.550;9.926;2023-04-06T05:39:28;16.40;;;7.85;;
43823;SDS011;29470;53.550;9.926;2023-04-06T05:44:31;13.18;;;7.47;;
43823;SDS011;29470;53.550;9.926;2023-04-06T05:49:48;16.60;;;8.27;;
43823;SDS011;29470;53.550;9.926;2023-04-06T05:55:00;16.58;;;8.23;;
43823;SDS011;29470;53.550;9.926;2023-04-06T06:00:05;18.85;;;8.25;;
43823;SDS011;29470;53.550;9.926;2023-04-06T06:05:22;15.82;;;8.38;;
43823;SDS011;29470;53.550;9.926;2023-04-06T06:10:26;16.60;;;8.52;;
43823;SDS011;29470;53.550;9.926;2023-04-06T06:15:29;14.60;;;7.40;;
43823;SDS011;29470;53.550;9.926;2023-04-06T06:20:34;13.02;;;6.55;;
43823;SDS011;29470;53.550;9.926;2023-04-06T06:25:39;13.45;;;6.38;;
43823;SDS011;29470;53.550;9.926;2023-04-06T06:30:44;11.30;;;7.40;;
43823;SDS011;29470;53.550;9.926;2023-04-06T06:35:55;13.88;;;7.00;;
43823;SDS011;29470;53.550;9.926;2023-04-06T06:41:04;14.52;;;6.70;;
43823;SDS011;29470;53.550;9.926;2023-04-06T06:46:10;11.07;;;6.95;;
43823;SDS011;29470;53.550;9.926;2023-04-06T06:51:16;14.98;;;6.38;;
43823;SDS011;29470;53.550;9.926;2023-04-06T06:56:19;12.20;;;5.93;;
43823;SDS011;29470;53.550;9.926;2023-04-06T07:01:25;8.88;;;5.30;;
43823;SDS011;29470;53.550;9.926;2023-04-06T07:06:30;7.88;;;5.35;;
43823;SDS011;29470;53.550;9.926;2023-04-06T07:11:33;8.45;;;5.53;;
43823;SDS011;29470;53.550;9.926;2023-04-06T07:16:37;7.82;;;5.25;;
43823;SDS011;29470;53.550;9.926;2023-04-06T07:21:41;6.60;;;5.18;;
43823;SDS011;29470;53.550;9.926;2023-04-06T07:26:45;8.02;;;5.80;;
43823;SDS011;29470;53.550;9.926;2023-04-06T07:31:48;13.63;;;5.57;;
43823;SDS011;29470;53.550;9.926;2023-04-06T07:36:53;9.48;;;5.78;;
43823;SDS011;29470;53.550;9.926;2023-04-06T07:41:58;9.05;;;4.93;;
43823;SDS011;29470;53.550;9.926;2023-04-06T07:47:01;8.75;;;5.60;;
43823;SDS011;29470;53.550;9.926;2023-04-06T07:52:11;10.52;;;4.97;;
43823;SDS011;29470;53.550;9.926;2023-04-06T07:57:16;6.45;;;5.10;;
43823;SDS011;29470;53.550;9.926;2023-04-06T08:02:20;10.48;;;5.38;;
43823;SDS011;29470;53.550;9.926;2023-04-06T08:07:25;12.77;;;5.65;;
43823;SDS011;29470;53.550;9.926;2023-04-06T08:18:09;9.05;;;5.57;;
43823;SDS011;29470;53.550;9.926;2023-04-06T08:24:02;8.20;;;5.40;;
43823;SDS011;29470;53.550;9.926;2023-04-06T08:29:05;10.40;;;5.60;;
43823;SDS011;29470;53.550;9.926;2023-04-06T08:34:09;12.25;;;6.32;;
43823;SDS011;29470;53.550;9.926;2023-04-06T08:39:16;11.07;;;6.13;;
43823;SDS011;29470;53.550;9.926;2023-04-06T08:44:25;9.45;;;5.50;;
43823;SDS011;29470;53.550;9.926;2023-04-06T08:49:28;11.48;;;5.90;;
43823;SDS011;29470;53.550;9.926;2023-04-06T08:54:33;9.70;;;5.60;;
43823;SDS011;29470;53.550;9.926;2023-04-06T08:59:36;12.68;;;6.25;;
43823;SDS011;29470;53.550;9.926;2023-04-06T09:04:41;10.10;;;5.35;;
43823;SDS011;29470;53.550;9.926;2023-04-06T09:09:45;9.48;;;5.43;;
43823;SDS011;29470;53.550;9.926;2023-04-06T09:14:50;10.60;;;5.07;;
43823;SDS011;29470;53.550;9.926;2023-04-06T09:19:53;9.02;;;5.28;;
43823;SDS011;29470;53.550;9.926;2023-04-06T09:24:58;9.40;;;4.72;;
43823;SDS011;29470;53.550;9.926;2023-04-06T09:30:02;12.05;;;4.60;;
43823;SDS011;29470;53.550;9.926;2023-04-06T09:35:07;11.98;;;4.70;;
43823;SDS011;29470;53.550;9.926;2023-04-06T09:40:13;8.65;;;4.30;;
43823;SDS011;29470;53.550;9.926;2023-04-06T09:45:21;6.40;;;4.03;;
43823;SDS011;29470;53.550;9.926;2023-04-06T09:50:24;7.50;;;4.18;;
43823;SDS011;29470;53.550;9.926;2023-04-06T10:01:02;6.72;;;4.07;;
43823;SDS011;29470;53.550;9.926;2023-04-06T10:06:09;6.85;;;4.25;;
43823;SDS011;29470;53.550;9.926;2023-04-06T10:11:17;8.88;;;3.92;;
43823;SDS011;29470;53.550;9.926;2023-04-06T10:16:21;7.40;;;3.60;;
43823;SDS011;29470;53.550;9.926;2023-04-06T10:21:26;6.30;;;3.70;;
43823;SDS011;29470;53.550;9.926;2023-04-06T10:26:33;8.32;;;4.47;;
43823;SDS011;29470;53.550;9.926;2023-04-06T10:31:39;6.95;;;4.13;;
43823;SDS011;29470;53.550;9.926;2023-04-06T10:41:48;8.40;;;4.18;;
43823;SDS011;29470;53.550;9.926;2023-04-06T10:46:52;7.75;;;4.28;;
43823;SDS011;29470;53.550;9.926;2023-04-06T10:51:56;9.68;;;4.47;;
43823;SDS011;29470;53.550;9.926;2023-04-06T10:57:01;7.43;;;4.47;;
43823;SDS011;29470;53.550;9.926;2023-04-06T11:02:04;8.55;;;4.45;;
43823;SDS011;29470;53.550;9.926;2023-04-06T11:07:11;8.38;;;5.20;;
43823;SDS011;29470;53.550;9.926;2023-04-06T11:18:22;10.25;;;4.97;;
43823;SDS011;29470;53.550;9.926;2023-04-06T11:23:25;8.30;;;5.15;;
43823;SDS011;29470;53.550;9.926;2023-04-06T11:28:28;10.48;;;5.50;;
43823;SDS011;29470;53.550;9.926;2023-04-06T11:33:36;10.35;;;5.38;;
43823;SDS011;29470;53.550;9.926;2023-04-06T11:38:40;8.60;;;6.05;;
43823;SDS011;29470;53.550;9.926;2023-04-06T11:43:45;10.85;;;6.22;;
43823;SDS011;29470;53.550;9.926;2023-04-06T11:48:51;8.73;;;5.53;;
43823;SDS011;29470;53.550;9.926;2023-04-06T11:53:54;11.18;;;6.70;;
43823;SDS011;29470;53.550;9.926;2023-04-06T11:58:57;10.88;;;6.40;;
43823;SDS011;29470;53.550;9.926;2023-04-06T12:04:06;7.82;;;5.25;;
43823;SDS011;29470;53.550;9.926;2023-04-06T12:09:09;10.32;;;5.65;;
43823;SDS011;29470;53.550;9.926;2023-04-06T12:14:12;9.77;;;5.32;;
43823;SDS011;29470;53.550;9.926;2023-04-06T12:19:17;9.63;;;5.60;;
43823;SDS011;29470;53.550;9.926;2023-04-06T12:24:20;10.85;;;5.93;;
43823;SDS011;29470;53.550;9.926;2023-04-06T12:29:24;11.90;;;6.82;;
43823;SDS011;29470;53.550;9.926;2023-04-06T12:34:28;10.68;;;6.18;;
43823;SDS011;29470;53.550;9.926;2023-04-06T12:39:31;9.32;;;6.03;;
43823;SDS011;29470;53.550;9.926;2023-04-06T12:44:34;11.48;;;6.50;;
43823;SDS011;29470;53.550;9.926;2023-04-06T12:49:39;9.07;;;6.25;;
43823;SDS011;29470;53.550;9.926;2023-04-06T12:54:42;11.82;;;6.25;;
43823;SDS011;29470;53.550;9.926;2023-04-06T12:59:51;11.05;;;5.80;;
43823;SDS011;29470;53.550;9.926;2023-04-06T13:10:42;11.60;;;6.43;;
43823;SDS011;29470;53.550;9.926;2023-04-06T13:15:45;9.88;;;6.13;;
43823;SDS011;29470;53.550;9.926;2023-04-06T13:20:50;10.70;;;6.20;;
43823;SDS011;29470;53.550;9.926;2023-04-06T13:25:59;12.68;;;6.72;;
43823;SDS011;29470;53.550;9.926;2023-04-06T13:31:02;10.30;;;6.07;;
43823;SDS011;29470;53.550;9.926;2023-04-06T13:36:07;8.80;;;5.72;;
43823;SDS011;29470;53.550;9.926;2023-04-06T13:41:16;8.50;;;5.40;;
43823;SDS011;29470;53.550;9.926;2023-04-06T13:46:23;9.68;;;6.20;;
43823;SDS011;29470;53.550;9.926;2023-04-06T13:51:28;8.18;;;5.07;;
43823;SDS011;29470;53.550;9.926;2023-04-06T13:56:32;8.38;;;4.90;;
43823;SDS011;29470;53.550;9.926;2023-04-06T14:01:34;6.72;;;4.63;;
43823;SDS011;29470;53.550;9.926;2023-04-06T14:06:46;10.35;;;5.72;;
43823;SDS011;29470;53.550;9.926;2023-04-06T14:12:16;9.18;;;5.07;;
43823;SDS011;29470;53.550;9.926;2023-04-06T14:17:19;6.72;;;4.63;;
43823;SDS011;29470;53.550;9.926;2023-04-06T14:27:58;10.25;;;6.03;;
43823;SDS011;29470;53.550;9.926;2023-04-06T14:33:03;11.90;;;6.18;;
43823;SDS011;29470;53.550;9.926;2023-04-06T14:38:29;9.15;;;6.13;;
43823;SDS011;29470;53.550;9.926;2023-04-06T14:43:37;12.02;;;6.70;;
43823;SDS011;29470;53.550;9.926;2023-04-06T14:48:53;12.55;;;5.65;;
43823;SDS011;29470;53.550;9.926;2023-04-06T14:54:02;10.00;;;6.07;;
43823;SDS011;29470;53.550;9.926;2023-04-06T14:59:06;13.55;;;6.60;;
43823;SDS011;29470;53.550;9.926;2023-04-06T15:04:09;10.25;;;5.50;;
43823;SDS011;29470;53.550;9.926;2023-04-06T15:09:12;9.13;;;6.10;;
43823;SDS011;29470;53.550;9.926;2023-04-06T15:19:30;9.23;;;6.13;;
43823;SDS011;29470;53.550;9.926;2023-04-06T15:24:33;12.02;;;6.80;;
43823;SDS011;29470;53.550;9.926;2023-04-06T15:29:37;11.93;;;5.97;;
43823;SDS011;29470;53.550;9.926;2023-04-06T15:34:40;11.13;;;6.50;;
43823;SDS011;29470;53.550;9.926;2023-04-06T15:39:43;9.32;;;6.53;;
43823;SDS011;29470;53.550;9.926;2023-04-06T15:44:47;10.57;;;6.00;;
43823;SDS011;29470;53.550;9.926;2023-04-06T15:49:50;10.75;;;6.72;;
43823;SDS011;29470;53.550;9.926;2023-04-06T15:54:52;9.25;;;6.40;;
43823;SDS011;29470;53.550;9.926;2023-04-06T15:59:59;11.52;;;6.32;;
43823;SDS011;29470;53.550;9.926;2023-04-06T16:05:09;9.90;;;6.40;;
43823;SDS011;29470;53.550;9.926;2023-04-06T16:10:12;10.10;;;6.43;;
43823;SDS011;29470;53.550;9.926;2023-04-06T16:15:16;9.43;;;6.50;;
43823;SDS011;29470;53.550;9.926;2023-04-06T16:20:19;10.55;;;6.70;;
43823;SDS011;29470;53.550;9.926;2023-04-06T16:25:31;10.65;;;6.47;;
43823;SDS011;29470;53.550;9.926;2023-04-06T16:30:38;10.35;;;6.85;;
43823;SDS011;29470;53.550;9.926;2023-04-06T16:35:46;10.02;;;7.20;;
43823;SDS011;29470;53.550;9.926;2023-04-06T16:40:57;10.27;;;6.57;;
43823;SDS011;29470;53.550;9.926;2023-04-06T16:46:02;12.02;;;7.18;;
43823;SDS011;29470;53.550;9.926;2023-04-06T16:51:05;9.63;;;6.97;;
43823;SDS011;29470;53.550;9.926;2023-04-06T16:56:14;11.43;;;7.45;;
43823;SDS011;29470;53.550;9.926;2023-04-06T17:01:19;10.73;;;6.72;;
43823;SDS011;29470;53.550;9.926;2023-04-06T17:06:23;11.55;;;7.53;;
43823;SDS011;29470;53.550;9.926;2023-04-06T17:11:29;11.45;;;6.63;;
43823;SDS011;29470;53.550;9.926;2023-04-06T17:16:48;12.80;;;7.57;;
43823;SDS011;29470;53.550;9.926;2023-04-06T17:21:51;10.98;;;6.80;;
43823;SDS011;29470;53.550;9.926;2023-04-06T17:26:54;10.52;;;6.65;;
43823;SDS011;29470;53.550;9.926;2023-04-06T17:32:04;14.23;;;6.68;;
43823;SDS011;29470;53.550;9.926;2023-04-06T17:37:13;11.73;;;7.32;;
43823;SDS011;29470;53.550;9.926;2023-04-06T17:42:34;11.50;;;6.68;;
43823;SDS011;29470;53.550;9.926;2023-04-06T17:47:45;12.35;;;7.25;;
43823;SDS011;29470;53.550;9.926;2023-04-06T17:52:51;12.88;;;7.47;;
43823;SDS011;29470;53.550;9.926;2023-04-06T17:57:54;12.50;;;8.43;;
43823;SDS011;29470;53.550;9.926;2023-04-06T18:02:58;12.60;;;7.20;;
43823;SDS011;29470;53.550;9.926;2023-04-06T18:08:02;12.38;;;7.07;;
43823;SDS011;29470;53.550;9.926;2023-04-06T18:13:05;12.88;;;7.90;;
43823;SDS011;29470;53.550;9.926;2023-04-06T18:18:09;11.82;;;7.63;;
43823;SDS011;29470;53.550;9.926;2023-04-06T18:23:12;11.15;;;7.28;;
43823;SDS011;29470;53.550;9.926;2023-04-06T18:28:15;12.52;;;8.35;;
43823;SDS011;29470;53.550;9.926;2023-04-06T18:33:19;11.82;;;7.80;;
43823;SDS011;29470;53.550;9.926;2023-04-06T18:38:22;11.48;;;7.82;;
43823;SDS011;29470;53.550;9.926;2023-04-06T18:43:25;13.75;;;7.45;;
43823;SDS011;29470;53.550;9.926;2023-04-06T18:48:30;14.48;;;8.38;;
43823;SDS011;29470;53.550;9.926;2023-04-06T18:53:32;15.18;;;8.15;;
43823;SDS011;29470;53.550;9.926;2023-04-06T18:58:44;15.23;;;8.43;;
43823;SDS011;29470;53.550;9.926;2023-04-06T19:03:50;13.63;;;8.25;;
43823;SDS011;29470;53.550;9.926;2023-04-06T19:08:54;18.23;;;9.32;;
43823;SDS011;29470;53.550;9.926;2023-04-06T19:13:57;19.05;;;9.38;;
43823;SDS011;29470;53.550;9.926;2023-04-06T19:19:02;16.73;;;9.25;;
43823;SDS011;29470;53.550;9.926;2023-04-06T19:24:05;18.27;;;9.85;;
43823;SDS011;29470;53.550;9.926;2023-04-06T19:29:08;16.10;;;9.55;;
43823;SDS011;29470;53.550;9.926;2023-04-06T19:34:12;19.30;;;10.65;;
43823;SDS011;29470;53.550;9.926;2023-04-06T19:39:18;18.02;;;9.90;;
43823;SDS011;29470;53.550;9.926;2023-04-06T19:44:24;17.63;;;10.07;;
43823;SDS011;29470;53.550;9.926;2023-04-06T19:49:28;16.80;;;9.57;;
43823;SDS011;29470;53.550;9.926;2023-04-06T19:54:31;16.70;;;9.70;;
43823;SDS011;29470;53.550;9.926;2023-04-06T19:59:36;16.15;;;9.57;;
43823;SDS011;29470;53.550;9.926;2023-04-06T20:04:40;14.95;;;7.90;;
43823;SDS011;29470;53.550;9.926;2023-04-06T20:09:43;15.13;;;8.70;;
43823;SDS011;29470;53.550;9.926;2023-04-06T20:14:46;16.10;;;8.98;;
43823;SDS011;29470;53.550;9.926;2023-04-06T20:19:50;17.65;;;9.50;;
43823;SDS011;29470;53.550;9.926;2023-04-06T20:24:54;24.30;;;9.90;;
43823;SDS011;29470;53.550;9.926;2023-04-06T20:29:56;15.57;;;9.25;;
43823;SDS011;29470;53.550;9.926;2023-04-06T20:35:03;15.48;;;8.45;;
43823;SDS011;29470;53.550;9.926;2023-04-06T20:40:14;15.27;;;8.63;;
43823;SDS011;29470;53.550;9.926;2023-04-06T20:45:17;15.75;;;8.93;;
43823;SDS011;29470;53.550;9.926;2023-04-06T20:50:22;17.10;;;9.25;;
43823;SDS011;29470;53.550;9.926;2023-04-06T20:55:25;17.13;;;8.80;;
43823;SDS011;29470;53.550;9.926;2023-04-06T21:00:34;14.20;;;8.80;;
43823;SDS011;29470;53.550;9.926;2023-04-06T21:12:17;18.05;;;9.52;;
43823;SDS011;29470;53.550;9.926;2023-04-06T21:17:51;16.20;;;8.50;;
43823;SDS011;29470;53.550;9.926;2023-04-06T21:23:06;14.38;;;8.43;;
43823;SDS011;29470;53.550;9.926;2023-04-06T21:28:11;14.02;;;8.32;;
43823;SDS011;29470;53.550;9.926;2023-04-06T21:34:06;14.80;;;8.40;;
43823;SDS011;29470;53.550;9.926;2023-04-06T21:39:10;16.90;;;9.00;;
43823;SDS011;29470;53.550;9.926;2023-04-06T21:44:26;19.57;;;9.30;;
43823;SDS011;29470;53.550;9.926;2023-04-06T21:49:38;17.70;;;9.00;;
43823;SDS011;29470;53.550;9.926;2023-04-06T21:54:50;16.67;;;8.82;;
43823;SDS011;29470;53.550;9.926;2023-04-06T21:59:59;19.48;;;9.82;;
43823;SDS011;29470;53.550;9.926;2023-04-06T22:05:03;18.08;;;9.43;;
43823;SDS011;29470;53.550;9.926;2023-04-06T22:10:07;15.48;;;9.00;;
43823;SDS011;29470;53.550;9.926;2023-04-06T22:15:11;18.90;;;9.82;;
43823;SDS011;29470;53.550;9.926;2023-04-06T22:20:20;16.88;;;9.35;;
43823;SDS011;29470;53.550;9.926;2023-04-06T22:25:22;14.50;;;8.75;;
43823;SDS011;29470;53.550;9.926;2023-04-06T22:30:27;17.92;;;9.02;;
43823;SDS011;29470;53.550;9.926;2023-04-06T22:36:39;20.02;;;9.07;;
43823;SDS011;29470;53.550;9.926;2023-04-06T22:41:42;19.60;;;10.70;;
43823;SDS011;29470;53.550;9.926;2023-04-06T22:46:50;19.10;;;9.43;;
43823;SDS011;29470;53.550;9.926;2023-04-06T22:51:53;18.13;;;9.65;;
43823;SDS011;29470;53.550;9.926;2023-04-06T22:56:58;20.98;;;10.48;;
43823;SDS011;29470;53.550;9.926;2023-04-06T23:02:02;18.85;;;9.82;;
43823;SDS011;29470;53.550;9.926;2023-04-06T23:07:08;18.95;;;9.65;;
43823;SDS011;29470;53.550;9.926;2023-04-06T23:12:15;18.00;;;9.95;;
43823;SDS011;29470;53.550;9.926;2023-04-06T23:23:02;17.38;;;8.88;;
43823;SDS011;29470;53.550;9.926;2023-04-06T23:28:07;16.50;;;9.07;;
43823;SDS011;29470;53.550;9.926;2023-04-06T23:33:20;15.63;;;9.27;;
43823;SDS011;29470;53.550;9.926;2023-04-06T23:38:23;19.50;;;9.85;;
43823;SDS011;29470;53.550;9.926;2023-04-06T23:43:26;16.33;;;9.52;;
43823;SDS011;29470;53.550;9.926;2023-04-06T23:48:30;15.35;;;8.57;;
43823;SDS011;29470;53.550;9.926;2023-04-06T23:53:33;18.05;;;9.70;;
43823;SDS011;29470;53.550;9.926;2023-04-06T23:58:52;15.73;;;9.18;;
